Flight Track Log - Related Links

Times and Time Zones

All times are in EDT time to prevent confusion due to time zone crossing. See the N9560V flight status page for this flight to view local times or setup timezone preferences in your user account.


Time Position Orientation Groundspeed Altitude Reporting Facility
EDT Latitude Longitude Course Direction KTS MPH feet Rate Location/Type
Tue 05:10:48 PM 38.5000 -121.5000 North 71 82 500  Level Northern Cal TRACON
Tue 05:11:48 PM 38.4833 -121.5167 218° Southwest 69 79 1,100 600 Climbing Northern Cal TRACON
Tue 05:12:48 PM 38.4833 -121.5500 270° West 74 85 1,700 600 Climbing Northern Cal TRACON
Tue 05:13:48 PM 38.4833 -121.5667 270° West 73 84 2,300 550 Climbing Northern Cal TRACON
Tue 05:14:48 PM 38.5000 -121.6000 303° West 78 90 2,800 550 Climbing Northern Cal TRACON
Tue 05:15:48 PM 38.5167 -121.6167 322° Northwest 88 101 3,400 500 Climbing Northern Cal TRACON
Tue 05:16:00 PM 38.6355 -121.5000 North  Level FlightAware Approximate
Tue 05:16:48 PM 38.5500 -121.6167 360° North 88 101 3,800  Level Northern Cal TRACON
Tue 05:17:48 PM 38.5667 -121.6333 322° Northwest 93 107 4,200 400 Climbing Northern Cal TRACON
Tue 05:18:48 PM 38.6000 -121.6333 360° North 97 112 4,600 350 Climbing Northern Cal TRACON
Tue 05:19:48 PM 38.6167 -121.6500 322° Northwest 104 120 4,900 300 Climbing Northern Cal TRACON
Tue 05:20:48 PM 38.6500 -121.6500 360° North 114 131 5,200 50 Climbing Northern Cal TRACON
Tue 05:21:48 PM 38.6833 -121.6500 360° North 120 138 5,000 -100 Descending Northern Cal TRACON
Tue 05:22:48 PM 38.7167 -121.6333 21° North 114 131 5,000  Level Northern Cal TRACON
Tue 05:23:48 PM 38.7500 -121.6333 360° North 116 133 5,000  Level Northern Cal TRACON
Tue 05:24:48 PM 38.7833 -121.6333 360° North 116 133 5,000  Level Northern Cal TRACON
Tue 05:25:54 PM 38.8167 -121.6167 21° North 117 135 5,000 -48 Level Northern Cal TRACON
Tue 05:26:54 PM 38.8500 -121.6167 360° North 124 143 4,900 -250 Descending Northern Cal TRACON
Tue 05:27:54 PM 38.8833 -121.6167 360° North 130 150 4,500 -400 Descending Northern Cal TRACON
Tue 05:28:54 PM 38.9167 -121.6000 21° North 142 163 4,100 -500 Descending Northern Cal TRACON
Tue 05:29:54 PM 38.9500 -121.6000 360° North 132 152 3,500 -500 Descending Northern Cal TRACON
Tue 05:30:54 PM 38.9833 -121.6000 360° North 126 145 3,100 -190 Descending Northern Cal TRACON
Tue 05:32:00 PM 39.0167 -121.5833 21° North 110 127 3,100 -48 Level Northern Cal TRACON
Tue 05:33:00 PM 39.0500 -121.5833 360° North 111 128 3,000  Descending Northern Cal TRACON
Tue 05:34:00 PM 39.0833 -121.5667 21° North 110 127 3,100  Climbing Northern Cal TRACON
Tue 05:34:54 PM 39.1167 -121.5667 360° North 115 132 3,000 -53 Descending Northern Cal TRACON
Tue 05:35:54 PM 39.1333 -121.5833 322° Northwest 115 132 3,000  Level Northern Cal TRACON
Tue 05:37:00 PM 39.1667 -121.6000 339° North 109 125 3,000  Level Northern Cal TRACON
Tue 05:38:00 PM 39.2000 -121.6000 360° North 105 121 3,000  Level Northern Cal TRACON

Login

Don't have an account? Register now (free) for customized features, flight alerts, and more!